Time,TemperatureF,DewpointF,PressureIn,WindDirection,WindDirectionDegrees,WindSpeedMPH,WindSpeedGustMPH,Humidity,HourlyPrecipIn,Conditions,Clouds,dailyrainin,SoftwareType,DateUTC
2013-12-30 00:04:00,19.6,13.4,30.26,NNE,22,0.0,0.0,77,0.00,,,0.00,WUHU21623XXSP,2013-12-30 06:04:00,
2013-12-30 00:09:00,19.6,13.4,30.26,NNE,22,0.0,0.0,77,0.00,,,0.00,WUHU21623XXSP,2013-12-30 06:09:00,
2013-12-30 00:14:00,19.6,13.4,30.27,NNE,22,0.0,0.0,77,0.00,,,0.00,WUHU21623XXSP,2013-12-30 06:14:00,
2013-12-30 00:19:00,19.6,13.4,30.26,NNE,22,0.0,0.0,77,0.00,,,0.00,WUHU21623XXSP,2013-12-30 06:19:00,
2013-12-30 00:24:00,19.6,13.4,30.25,NNE,22,0.0,0.0,77,0.00,,,0.00,WUHU21623XXSP,2013-12-30 06:24:00,
2013-12-30 00:29:00,19.6,13.4,30.26,NNE,22,0.0,0.0,77,0.00,,,0.00,WUHU21623XXSP,2013-12-30 06:29:00,
2013-12-30 00:34:00,19.6,13.4,30.27,NNE,22,0.0,0.0,77,0.00,,,0.00,WUHU21623XXSP,2013-12-30 06:34:00,
2013-12-30 00:39:00,19.6,13.4,30.26,NNE,22,0.0,0.0,77,0.00,,,0.00,WUHU21623XXSP,2013-12-30 06:39:00,
2013-12-30 00:44:00,19.6,13.4,30.26,North,0,0.0,0.0,77,0.00,,,0.00,WUHU21623XXSP,2013-12-30 06:44:00,
2013-12-30 00:49:00,19.6,13.4,30.26,NNE,22,0.0,0.0,77,0.00,,,0.00,WUHU21623XXSP,2013-12-30 06:49:00,
2013-12-30 00:54:00,19.4,13.3,30.26,NNE,22,0.0,0.0,77,0.00,,,0.00,WUHU21623XXSP,2013-12-30 06:54:00,
2013-12-30 00:59:00,19.2,13.1,30.26,NNE,22,0.0,0.0,77,0.00,,,0.00,WUHU21623XXSP,2013-12-30 06:59:00,
2013-12-30 01:04:00,19.2,13.1,30.25,NNE,22,0.0,0.0,77,0.00,,,0.00,WUHU21623XXSP,2013-12-30 07:04:00,
2013-12-30 01:09:00,19.2,13.1,30.26,NNE,22,0.0,0.0,77,0.00,,,0.00,WUHU21623XXSP,2013-12-30 07:09:00,
2013-12-30 01:14:00,19.2,13.1,30.26,North,0,0.4,0.4,77,0.00,,,0.00,WUHU21623XXSP,2013-12-30 07:14:00,
2013-12-30 01:19:00,19.0,12.9,30.26,NNE,22,0.0,0.4,77,0.00,,,0.00,WUHU21623XXSP,2013-12-30 07:19:00,
2013-12-30 01:24:00,19.0,12.9,30.26,NNE,22,0.0,0.0,77,0.00,,,0.00,WUHU21623XXSP,2013-12-30 07:24:00,
2013-12-30 01:29:00,19.0,12.9,30.26,NNE,22,0.0,0.0,77,0.00,,,0.00,WUHU21623XXSP,2013-12-30 07:29:00,
2013-12-30 01:34:00,19.0,12.9,30.26,NNE,22,0.0,0.0,77,0.00,,,0.00,WUHU21623XXSP,2013-12-30 07:34:00,
2013-12-30 01:39:00,19.0,12.9,30.26,NNE,22,0.0,0.0,77,0.00,,,0.00,WUHU21623XXSP,2013-12-30 07:39:00,
2013-12-30 01:44:00,19.2,13.1,30.25,NNE,22,0.0,0.0,77,0.00,,,0.00,WUHU21623XXSP,2013-12-30 07:44:00,
2013-12-30 01:49:00,19.2,12.8,30.26,NNE,22,0.0,0.0,76,0.00,,,0.00,WUHU21623XXSP,2013-12-30 07:49:00,
2013-12-30 01:54:00,19.4,13.0,30.26,NNE,22,0.0,0.0,76,0.00,,,0.00,WUHU21623XXSP,2013-12-30 07:54:00,
2013-12-30 01:59:00,19.6,13.1,30.25,NE,45,0.0,0.0,76,0.00,,,0.00,WUHU21623XXSP,2013-12-30 07:59:00,
2013-12-30 02:04:00,19.6,13.1,30.26,NNE,22,0.0,0.0,76,0.00,,,0.00,WUHU21623XXSP,2013-12-30 08:04:00,
2013-12-30 02:09:00,19.4,13.1,30.26,NNE,22,0.0,0.0,76,0.00,,,0.00,WUHU21623XXSP,2013-12-30 08:09:00,
2013-12-30 02:14:00,19.2,12.8,30.26,NNE,22,0.0,0.0,76,0.00,,,0.00,WUHU21623XXSP,2013-12-30 08:14:00,
2013-12-30 02:19:00,19.0,12.6,30.25,NNE,22,0.0,0.0,76,0.00,,,0.00,WUHU21623XXSP,2013-12-30 08:19:00,
2013-12-30 02:24:00,18.7,12.3,30.25,NNE,22,0.0,0.0,76,0.00,,,0.00,WUHU21623XXSP,2013-12-30 08:24:00,
2013-12-30 02:29:00,18.5,12.1,30.26,North,0,0.0,0.0,76,0.00,,,0.00,WUHU21623XXSP,2013-12-30 08:29:00,
2013-12-30 02:34:00,18.1,11.9,30.26,North,0,0.0,0.0,76,0.00,,,0.00,WUHU21623XXSP,2013-12-30 08:34:00,
2013-12-30 02:39:00,18.1,11.7,30.26,NNE,22,0.0,0.0,76,0.00,,,0.00,WUHU21623XXSP,2013-12-30 08:39:00,
2013-12-30 02:44:00,18.1,11.7,30.25,NNE,22,0.0,0.0,76,0.00,,,0.00,WUHU21623XXSP,2013-12-30 08:44:00,
2013-12-30 02:49:00,18.3,12.2,30.26,NNE,22,0.0,0.0,77,0.00,,,0.00,WUHU21623XXSP,2013-12-30 08:49:00,
2013-12-30 02:54:00,18.5,12.4,30.26,NNE,22,0.0,0.0,77,0.00,,,0.00,WUHU21623XXSP,2013-12-30 08:54:00,
2013-12-30 02:59:00,18.5,12.4,30.25,North,0,0.0,0.0,77,0.00,,,0.00,WUHU21623XXSP,2013-12-30 08:59:00,
2013-12-30 03:04:00,18.7,12.6,30.26,NNE,22,0.0,0.0,77,0.00,,,0.00,WUHU21623XXSP,2013-12-30 09:04:00,
2013-12-30 03:09:00,18.7,12.6,30.26,North,0,0.0,0.0,77,0.00,,,0.00,WUHU21623XXSP,2013-12-30 09:09:00,
2013-12-30 03:14:00,18.5,12.4,30.26,NNE,22,0.0,0.0,77,0.00,,,0.00,WUHU21623XXSP,2013-12-30 09:14:00,
2013-12-30 03:19:00,18.5,12.4,30.25,NNE,22,0.0,0.0,77,0.00,,,0.00,WUHU21623XXSP,2013-12-30 09:19:00,
2013-12-30 03:24:00,18.3,12.2,30.25,NNE,22,0.0,0.0,77,0.00,,,0.00,WUHU21623XXSP,2013-12-30 09:24:00,
2013-12-30 03:29:00,18.1,12.0,30.25,NNE,22,0.0,0.0,77,0.00,,,0.00,WUHU21623XXSP,2013-12-30 09:29:00,
2013-12-30 03:34:00,17.8,11.7,30.24,NNE,22,0.0,0.0,77,0.00,,,0.00,WUHU21623XXSP,2013-12-30 09:34:00,
2013-12-30 03:39:00,17.4,11.3,30.24,NNE,22,0.0,0.0,77,0.00,,,0.00,WUHU21623XXSP,2013-12-30 09:39:00,
2013-12-30 03:44:00,17.2,11.2,30.24,NNE,22,0.0,0.0,77,0.00,,,0.00,WUHU21623XXSP,2013-12-30 09:44:00,
2013-12-30 03:49:00,16.9,10.8,30.24,NNE,22,0.0,0.0,77,0.00,,,0.00,WUHU21623XXSP,2013-12-30 09:49:00,
2013-12-30 03:54:00,16.7,11.0,30.25,NNE,22,0.0,0.0,78,0.00,,,0.00,WUHU21623XXSP,2013-12-30 09:54:00,
2013-12-30 03:59:00,16.5,10.8,30.25,NNE,22,0.0,0.0,78,0.00,,,0.00,WUHU21623XXSP,2013-12-30 09:59:00,
2013-12-30 04:04:00,16.3,10.6,30.25,NNE,22,0.0,0.0,78,0.00,,,0.00,WUHU21623XXSP,2013-12-30 10:04:00,
2013-12-30 04:09:00,16.3,10.6,30.24,NNE,22,0.0,0.0,78,0.00,,,0.00,WUHU21623XXSP,2013-12-30 10:09:00,
2013-12-30 04:14:00,16.3,10.6,30.24,NNE,22,0.0,0.0,78,0.00,,,0.00,WUHU21623XXSP,2013-12-30 10:14:00,
2013-12-30 04:19:00,16.2,10.5,30.25,NNE,22,0.0,0.0,78,0.00,,,0.00,WUHU21623XXSP,2013-12-30 10:19:00,
2013-12-30 04:24:00,16.2,10.5,30.25,NNE,22,0.0,0.0,78,0.00,,,0.00,WUHU21623XXSP,2013-12-30 10:24:00,
2013-12-30 04:29:00,16.0,10.3,30.25,NNE,22,0.0,0.0,78,0.00,,,0.00,WUHU21623XXSP,2013-12-30 10:29:00,
2013-12-30 04:34:00,15.8,10.5,30.26,NNE,22,0.0,0.0,79,0.00,,,0.00,WUHU21623XXSP,2013-12-30 10:34:00,
2013-12-30 04:39:00,15.6,10.3,30.25,NNE,22,0.0,0.0,79,0.00,,,0.00,WUHU21623XXSP,2013-12-30 10:39:00,
2013-12-30 04:44:00,15.6,10.3,30.25,NNE,22,0.0,0.0,79,0.00,,,0.00,WUHU21623XXSP,2013-12-30 10:44:00,
2013-12-30 04:49:00,15.6,10.3,30.25,NNE,22,0.0,0.0,79,0.00,,,0.00,WUHU21623XXSP,2013-12-30 10:49:00,
2013-12-30 04:54:00,15.6,10.3,30.25,NNE,22,0.0,0.0,79,0.00,,,0.00,WUHU21623XXSP,2013-12-30 10:54:00,
2013-12-30 04:59:00,15.3,10.1,30.26,NNE,22,0.0,0.0,79,0.00,,,0.00,WUHU21623XXSP,2013-12-30 10:59:00,
2013-12-30 05:04:00,15.1,9.7,30.25,NNE,22,0.0,0.0,79,0.00,,,0.00,WUHU21623XXSP,2013-12-30 11:04:00,
2013-12-30 05:09:00,15.1,9.7,30.25,NNE,22,0.0,0.0,79,0.00,,,0.00,WUHU21623XXSP,2013-12-30 11:09:00,
2013-12-30 05:14:00,14.9,9.6,30.26,NNE,22,0.0,0.0,79,0.00,,,0.00,WUHU21623XXSP,2013-12-30 11:14:00,
2013-12-30 05:19:00,14.7,9.4,30.26,NNE,22,0.0,0.0,80,0.00,,,0.00,WUHU21623XXSP,2013-12-30 11:19:00,
2013-12-30 05:24:00,14.7,9.7,30.25,NNE,22,0.0,0.0,80,0.00,,,0.00,WUHU21623XXSP,2013-12-30 11:24:00,
2013-12-30 05:29:00,14.5,9.5,30.25,NNE,22,0.0,0.0,80,0.00,,,0.00,WUHU21623XXSP,2013-12-30 11:29:00,
2013-12-30 05:34:00,14.2,9.1,30.25,NNE,22,0.0,0.0,80,0.00,,,0.00,WUHU21623XXSP,2013-12-30 11:34:00,
2013-12-30 05:39:00,13.8,8.8,30.25,NNE,22,0.0,0.0,80,0.00,,,0.00,WUHU21623XXSP,2013-12-30 11:39:00,
2013-12-30 05:44:00,13.6,8.6,30.26,NNE,22,0.0,0.0,80,0.00,,,0.00,WUHU21623XXSP,2013-12-30 11:44:00,
2013-12-30 05:49:00,13.3,8.2,30.25,NNE,22,0.0,0.0,80,0.00,,,0.00,WUHU21623XXSP,2013-12-30 11:49:00,
2013-12-30 05:54:00,13.6,8.6,30.25,NNE,22,0.0,0.0,80,0.00,,,0.00,WUHU21623XXSP,2013-12-30 11:54:00,
2013-12-30 05:59:00,13.3,8.2,30.25,NNE,22,0.0,0.0,80,0.00,,,0.00,WUHU21623XXSP,2013-12-30 11:59:00,
2013-12-30 06:04:00,12.9,7.9,30.24,NNE,22,0.0,0.0,80,0.00,,,0.00,WUHU21623XXSP,2013-12-30 12:04:00,
2013-12-30 06:09:00,12.7,7.7,30.25,NNE,22,0.0,0.0,80,0.00,,,0.00,WUHU21623XXSP,2013-12-30 12:09:00,
2013-12-30 06:14:00,12.4,7.3,30.26,NNE,22,0.0,0.0,80,0.00,,,0.00,WUHU21623XXSP,2013-12-30 12:14:00,
2013-12-30 06:19:00,12.2,7.2,30.26,NNE,22,0.0,0.0,80,0.00,,,0.00,WUHU21623XXSP,2013-12-30 12:19:00,
2013-12-30 06:24:00,12.0,7.0,30.26,NNE,22,0.0,0.0,80,0.00,,,0.00,WUHU21623XXSP,2013-12-30 12:24:00,
2013-12-30 06:29:00,12.0,7.0,30.26,NNE,22,0.0,0.0,80,0.00,,,0.00,WUHU21623XXSP,2013-12-30 12:29:00,
2013-12-30 06:34:00,12.0,7.0,30.26,NNE,22,0.0,0.0,80,0.00,,,0.00,WUHU21623XXSP,2013-12-30 12:34:00,
2013-12-30 06:39:00,12.0,7.0,30.26,NNE,22,0.0,0.0,80,0.00,,,0.00,WUHU21623XXSP,2013-12-30 12:39:00,
2013-12-30 06:44:00,12.0,7.0,30.26,NNE,22,0.0,0.0,80,0.00,,,0.00,WUHU21623XXSP,2013-12-30 12:44:00,
2013-12-30 06:49:00,12.0,7.0,30.27,NNE,22,0.0,0.0,80,0.00,,,0.00,WUHU21623XXSP,2013-12-30 12:49:00,
2013-12-30 06:54:00,12.0,7.0,30.27,NNE,22,0.0,0.0,80,0.00,,,0.00,WUHU21623XXSP,2013-12-30 12:54:00,
2013-12-30 06:59:00,12.0,7.3,30.28,NNE,22,0.0,0.0,81,0.00,,,0.00,WUHU21623XXSP,2013-12-30 12:59:00,
2013-12-30 07:04:00,12.0,7.3,30.28,NNE,22,0.0,0.0,81,0.00,,,0.00,WUHU21623XXSP,2013-12-30 13:04:00,
2013-12-30 07:09:00,12.2,7.4,30.28,NNE,22,0.0,0.0,81,0.00,,,0.00,WUHU21623XXSP,2013-12-30 13:09:00,
2013-12-30 07:14:00,12.4,7.6,30.28,NNE,22,0.0,0.0,81,0.00,,,0.00,WUHU21623XXSP,2013-12-30 13:14:00,
2013-12-30 07:19:00,12.2,7.4,30.28,NNE,22,0.0,0.0,81,0.00,,,0.00,WUHU21623XXSP,2013-12-30 13:19:00,
2013-12-30 07:24:00,12.2,7.4,30.28,NNE,22,0.0,0.0,81,0.00,,,0.00,WUHU21623XXSP,2013-12-30 13:24:00,
2013-12-30 07:29:00,12.4,7.6,30.29,NNE,22,0.0,0.0,81,0.00,,,0.00,WUHU21623XXSP,2013-12-30 13:29:00,
2013-12-30 07:34:00,12.6,7.8,30.28,NNE,22,0.0,0.0,81,0.00,,,0.00,WUHU21623XXSP,2013-12-30 13:34:00,
2013-12-30 07:39:00,12.7,8.0,30.29,NNE,22,0.0,0.0,81,0.00,,,0.00,WUHU21623XXSP,2013-12-30 13:39:00,
2013-12-30 07:44:00,12.9,8.1,30.29,NNE,22,0.0,0.0,81,0.00,,,0.00,WUHU21623XXSP,2013-12-30 13:44:00,
2013-12-30 07:49:00,13.3,8.5,30.29,North,0,0.0,0.0,81,0.00,,,0.00,WUHU21623XXSP,2013-12-30 13:49:00,
2013-12-30 07:54:00,13.6,8.9,30.29,NNE,22,0.0,0.0,81,0.00,,,0.00,WUHU21623XXSP,2013-12-30 13:54:00,
2013-12-30 07:59:00,13.8,9.1,30.29,North,0,0.0,0.0,81,0.00,,,0.00,WUHU21623XXSP,2013-12-30 13:59:00,
2013-12-30 08:04:00,13.8,9.1,30.29,North,0,0.0,0.0,81,0.00,,,0.00,WUHU21623XXSP,2013-12-30 14:04:00,
2013-12-30 08:09:00,14.2,9.4,30.29,NNE,22,0.0,0.0,81,0.00,,,0.00,WUHU21623XXSP,2013-12-30 14:09:00,
2013-12-30 08:14:00,14.5,10.0,30.29,NNE,22,0.0,0.0,82,0.00,,,0.00,WUHU21623XXSP,2013-12-30 14:14:00,
2013-12-30 08:19:00,14.7,10.2,30.28,NNE,22,0.0,0.0,82,0.00,,,0.00,WUHU21623XXSP,2013-12-30 14:19:00,
2013-12-30 08:24:00,14.9,10.4,30.29,NE,45,0.0,0.0,82,0.00,,,0.00,WUHU21623XXSP,2013-12-30 14:24:00,
2013-12-30 08:29:00,15.4,10.9,30.28,NE,45,0.0,0.0,82,0.00,,,0.00,WUHU21623XXSP,2013-12-30 14:29:00,
2013-12-30 08:34:00,15.6,11.1,30.28,NE,45,0.0,0.0,82,0.00,,,0.00,WUHU21623XXSP,2013-12-30 14:34:00,
2013-12-30 08:39:00,16.3,11.4,30.28,NE,45,0.0,0.0,82,0.00,,,0.00,WUHU21623XXSP,2013-12-30 14:39:00,
2013-12-30 08:44:00,18.0,13.3,30.29,NE,45,0.0,0.0,82,0.00,,,0.00,WUHU21623XXSP,2013-12-30 14:44:00,
2013-12-30 08:50:00,19.2,14.8,30.29,ENE,67,0.0,0.0,83,0.00,,,0.00,WUHU21623XXSP,2013-12-30 14:50:00,
2013-12-30 08:55:00,20.3,15.9,30.29,ENE,67,0.0,0.0,83,0.00,,,0.00,WUHU21623XXSP,2013-12-30 14:55:00,
2013-12-30 09:00:00,21.4,16.7,30.29,ESE,112,0.0,0.0,82,0.00,,,0.00,WUHU21623XXSP,2013-12-30 15:00:00,
2013-12-30 09:05:00,21.9,17.0,30.30,ENE,67,0.0,0.0,81,0.00,,,0.00,WUHU21623XXSP,2013-12-30 15:05:00,
2013-12-30 09:10:00,22.8,17.9,30.29,ENE,67,0.0,0.0,81,0.00,,,0.00,WUHU21623XXSP,2013-12-30 15:10:00,
2013-12-30 09:15:00,23.9,18.4,30.29,ENE,67,0.0,0.0,79,0.00,,,0.00,WUHU21623XXSP,2013-12-30 15:15:00,
2013-12-30 09:20:00,24.8,18.9,30.28,SE,135,0.0,0.0,78,0.00,,,0.00,WUHU21623XXSP,2013-12-30 15:20:00,
2013-12-30 09:25:00,25.5,19.6,30.29,ESE,112,0.0,0.0,78,0.00,,,0.00,WUHU21623XXSP,2013-12-30 15:25:00,
2013-12-30 09:30:00,27.1,20.5,30.29,SE,135,0.0,0.0,76,0.00,,,0.00,WUHU21623XXSP,2013-12-30 15:30:00,
2013-12-30 09:35:00,28.0,21.1,30.30,SE,135,0.0,0.0,75,0.00,,,0.00,WUHU21623XXSP,2013-12-30 15:35:00,
2013-12-30 09:40:00,28.6,21.0,30.30,ESE,112,0.0,0.0,73,0.00,,,0.00,WUHU21623XXSP,2013-12-30 15:40:00,
2013-12-30 09:45:00,28.9,20.9,30.30,ESE,112,0.0,0.0,71,0.00,,,0.00,WUHU21623XXSP,2013-12-30 15:45:00,
2013-12-30 09:50:00,29.1,20.6,30.30,SE,135,0.0,0.0,70,0.00,,,0.00,WUHU21623XXSP,2013-12-30 15:50:00,
2013-12-30 09:55:00,29.7,21.1,30.29,SE,135,0.0,0.0,70,0.00,,,0.00,WUHU21623XXSP,2013-12-30 15:55:00,
2013-12-30 10:00:00,30.7,21.4,30.30,SE,135,0.0,0.0,68,0.00,,,0.00,WUHU21623XXSP,2013-12-30 16:00:00,
2013-12-30 10:05:00,31.1,21.4,30.30,East,90,0.0,0.0,67,0.00,,,0.00,WUHU21623XXSP,2013-12-30 16:05:00,
2013-12-30 10:10:00,31.8,22.1,30.30,East,90,0.0,0.0,67,0.00,,,0.00,WUHU21623XXSP,2013-12-30 16:10:00,
2013-12-30 10:15:00,32.9,22.4,30.30,SE,135,0.0,0.0,65,0.00,,,0.00,WUHU21623XXSP,2013-12-30 16:15:00,
2013-12-30 10:20:00,33.8,22.9,30.30,South,180,0.0,0.0,65,0.00,,,0.00,WUHU21623XXSP,2013-12-30 16:20:00,
2013-12-30 10:25:00,34.3,23.0,30.30,ENE,67,0.0,0.0,63,0.00,,,0.00,WUHU21623XXSP,2013-12-30 16:25:00,
2013-12-30 10:30:00,35.4,23.4,30.30,SE,135,0.0,0.0,61,0.00,,,0.00,WUHU21623XXSP,2013-12-30 16:30:00,
2013-12-30 10:35:00,35.8,23.0,30.30,SE,135,0.0,0.0,60,0.00,,,0.00,WUHU21623XXSP,2013-12-30 16:35:00,
2013-12-30 10:40:00,36.3,23.8,30.30,NE,45,0.0,0.0,60,0.00,,,0.00,WUHU21623XXSP,2013-12-30 16:40:00,
2013-12-30 10:45:00,36.7,22.9,30.30,SE,135,0.0,0.0,57,0.00,,,0.00,WUHU21623XXSP,2013-12-30 16:45:00,
2013-12-30 10:50:00,37.2,23.3,30.30,NE,45,0.0,0.0,57,0.00,,,0.00,WUHU21623XXSP,2013-12-30 16:50:00,
2013-12-30 10:55:00,37.8,23.8,30.30,NE,45,0.0,0.0,57,0.00,,,0.00,WUHU21623XXSP,2013-12-30 16:55:00,
2013-12-30 11:00:00,38.5,23.6,30.30,NE,45,0.0,0.0,55,0.00,,,0.00,WUHU21623XXSP,2013-12-30 17:00:00,
2013-12-30 11:05:00,39.0,23.9,30.30,South,180,0.0,0.0,55,0.00,,,0.00,WUHU21623XXSP,2013-12-30 17:05:00,
2013-12-30 11:10:00,39.4,24.0,30.30,SSE,157,0.0,0.0,54,0.00,,,0.00,WUHU21623XXSP,2013-12-30 17:10:00,
2013-12-30 11:15:00,39.6,23.7,30.30,SSE,157,0.0,0.0,53,0.00,,,0.00,WUHU21623XXSP,2013-12-30 17:15:00,
2013-12-30 11:20:00,39.6,23.3,30.30,WSW,247,0.0,0.0,52,0.00,,,0.00,WUHU21623XXSP,2013-12-30 17:20:00,
2013-12-30 11:25:00,38.8,22.6,30.29,SSE,157,0.0,0.0,52,0.00,,,0.00,WUHU21623XXSP,2013-12-30 17:25:00,
2013-12-30 11:30:00,39.0,22.8,30.30,SSE,157,0.0,0.0,52,0.00,,,0.00,WUHU21623XXSP,2013-12-30 17:30:00,
2013-12-30 11:35:00,40.1,23.8,30.29,WSW,247,0.0,0.0,52,0.00,,,0.00,WUHU21623XXSP,2013-12-30 17:35:00,
2013-12-30 11:40:00,40.8,23.6,30.28,SE,135,0.0,1.8,50,0.00,,,0.00,WUHU21623XXSP,2013-12-30 17:40:00,
2013-12-30 11:45:00,41.5,23.7,30.28,South,180,2.7,2.7,49,0.00,,,0.00,WUHU21623XXSP,2013-12-30 17:45:00,
2013-12-30 11:50:00,41.7,23.9,30.29,South,180,0.0,2.7,49,0.00,,,0.00,WUHU21623XXSP,2013-12-30 17:50:00,
2013-12-30 11:55:00,41.5,23.2,30.29,SSW,202,0.0,0.0,48,0.00,,,0.00,WUHU21623XXSP,2013-12-30 17:55:00,
2013-12-30 12:00:00,41.9,23.6,30.28,SSW,202,0.0,0.0,48,0.00,,,0.00,WUHU21623XXSP,2013-12-30 18:00:00,
2013-12-30 12:05:00,41.9,23.6,30.28,SSE,157,2.7,2.7,48,0.00,,,0.00,WUHU21623XXSP,2013-12-30 18:05:00,
2013-12-30 12:10:00,41.4,23.0,30.27,SSW,202,1.3,2.7,48,0.00,,,0.00,WUHU21623XXSP,2013-12-30 18:10:00,
2013-12-30 12:15:00,40.6,22.4,30.27,SSW,202,0.0,2.7,48,0.00,,,0.00,WUHU21623XXSP,2013-12-30 18:15:00,
2013-12-30 12:20:00,39.7,21.5,30.27,SW,225,0.0,0.0,48,0.00,,,0.00,WUHU21623XXSP,2013-12-30 18:20:00,
2013-12-30 12:25:00,38.5,20.9,30.27,West,270,0.0,0.0,49,0.00,,,0.00,WUHU21623XXSP,2013-12-30 18:25:00,
2013-12-30 12:30:00,38.8,22.2,30.27,WSW,247,0.0,0.0,51,0.00,,,0.00,WUHU21623XXSP,2013-12-30 18:30:00,
2013-12-30 12:35:00,39.4,22.4,30.27,WSW,247,0.0,0.0,51,0.00,,,0.00,WUHU21623XXSP,2013-12-30 18:35:00,
2013-12-30 12:40:00,39.7,22.6,30.27,WSW,247,0.0,0.0,50,0.00,,,0.00,WUHU21623XXSP,2013-12-30 18:40:00,
2013-12-30 12:45:00,39.6,22.4,30.27,WSW,247,0.0,0.0,50,0.00,,,0.00,WUHU21623XXSP,2013-12-30 18:45:00,
2013-12-30 12:50:00,39.0,22.4,30.27,West,270,0.0,0.0,51,0.00,,,0.00,WUHU21623XXSP,2013-12-30 18:50:00,
2013-12-30 12:55:00,38.5,21.9,30.26,SW,225,0.0,0.0,51,0.00,,,0.00,WUHU21623XXSP,2013-12-30 18:55:00,
2013-12-30 13:00:00,37.9,21.6,30.26,South,180,4.0,4.0,52,0.00,,,0.00,WUHU21623XXSP,2013-12-30 19:00:00,
2013-12-30 13:05:00,38.8,22.6,30.24,SSW,202,0.0,4.0,52,0.00,,,0.00,WUHU21623XXSP,2013-12-30 19:05:00,
2013-12-30 13:10:00,40.3,23.5,30.23,WSW,247,0.0,0.9,51,0.00,,,0.00,WUHU21623XXSP,2013-12-30 19:10:00,
2013-12-30 13:15:00,40.8,23.6,30.23,SSW,202,0.0,2.7,50,0.00,,,0.00,WUHU21623XXSP,2013-12-30 19:15:00,
2013-12-30 13:20:00,41.5,23.7,30.23,SW,225,0.0,2.7,49,0.00,,,0.00,WUHU21623XXSP,2013-12-30 19:20:00,
2013-12-30 13:25:00,42.4,24.6,30.23,SW,225,1.6,1.6,49,0.00,,,0.00,WUHU21623XXSP,2013-12-30 19:25:00,
2013-12-30 13:30:00,42.6,24.6,30.23,South,180,0.0,1.6,49,0.00,,,0.00,WUHU21623XXSP,2013-12-30 19:30:00,
2013-12-30 13:35:00,42.6,24.8,30.23,WSW,247,0.0,0.0,49,0.00,,,0.00,WUHU21623XXSP,2013-12-30 19:35:00,
2013-12-30 13:40:00,43.0,24.6,30.23,South,180,0.0,0.0,48,0.00,,,0.00,WUHU21623XXSP,2013-12-30 19:40:00,
2013-12-30 13:45:00,43.5,25.3,30.22,South,180,0.0,0.0,49,0.00,,,0.00,WUHU21623XXSP,2013-12-30 19:45:00,
2013-12-30 13:50:00,43.9,25.4,30.23,WSW,247,0.0,0.0,48,0.00,,,0.00,WUHU21623XXSP,2013-12-30 19:50:00,
2013-12-30 13:55:00,43.9,24.9,30.23,South,180,0.0,0.0,48,0.00,,,0.00,WUHU21623XXSP,2013-12-30 19:55:00,
2013-12-30 14:00:00,44.4,25.7,30.23,WSW,247,0.0,0.0,47,0.00,,,0.00,WUHU21623XXSP,2013-12-30 20:00:00,
2013-12-30 14:05:00,44.4,25.4,30.23,SW,225,0.0,0.0,47,0.00,,,0.00,WUHU21623XXSP,2013-12-30 20:05:00,
2013-12-30 14:10:00,44.4,25.4,30.23,SE,135,0.0,0.0,47,0.00,,,0.00,WUHU21623XXSP,2013-12-30 20:10:00,
2013-12-30 14:15:00,44.2,24.7,30.23,WSW,247,0.0,0.0,46,0.00,,,0.00,WUHU21623XXSP,2013-12-30 20:15:00,
2013-12-30 14:20:00,43.9,24.9,30.23,WSW,247,0.0,5.1,47,0.00,,,0.00,WUHU21623XXSP,2013-12-30 20:20:00,
2013-12-30 14:25:00,43.5,24.7,30.24,WSW,247,0.0,6.0,47,0.00,,,0.00,WUHU21623XXSP,2013-12-30 20:25:00,
2013-12-30 14:30:00,43.5,25.1,30.25,WSW,247,0.0,6.0,47,0.00,,,0.00,WUHU21623XXSP,2013-12-30 20:30:00,
2013-12-30 14:35:00,43.2,24.4,30.25,SW,225,3.1,3.1,47,0.00,,,0.00,WUHU21623XXSP,2013-12-30 20:35:00,
2013-12-30 14:40:00,42.6,24.8,30.25,West,270,0.0,3.1,49,0.00,,,0.00,WUHU21623XXSP,2013-12-30 20:40:00,
2013-12-30 14:45:00,42.6,24.8,30.25,WSW,247,0.0,0.0,49,0.00,,,0.00,WUHU21623XXSP,2013-12-30 20:45:00,
2013-12-30 14:50:00,42.6,24.8,30.24,WSW,247,2.2,2.2,49,0.00,,,0.00,WUHU21623XXSP,2013-12-30 20:50:00,
2013-12-30 14:55:00,41.5,23.7,30.24,SW,225,0.0,2.2,49,0.00,,,0.00,WUHU21623XXSP,2013-12-30 20:55:00,
2013-12-30 15:00:00,40.3,23.1,30.24,SSW,202,0.0,3.8,50,0.00,,,0.00,WUHU21623XXSP,2013-12-30 21:00:00,
2013-12-30 15:05:00,39.4,23.1,30.24,SSE,157,0.2,3.8,52,0.00,,,0.00,WUHU21623XXSP,2013-12-30 21:05:00,
2013-12-30 15:10:00,38.1,22.4,30.25,WSW,247,0.0,0.2,53,0.00,,,0.00,WUHU21623XXSP,2013-12-30 21:10:00,
2013-12-30 15:15:00,37.6,22.4,30.25,WSW,247,1.8,1.8,54,0.00,,,0.00,WUHU21623XXSP,2013-12-30 21:15:00,
2013-12-30 15:20:00,37.0,22.3,30.24,SE,135,2.9,5.8,55,0.00,,,0.00,WUHU21623XXSP,2013-12-30 21:20:00,
2013-12-30 15:25:00,36.3,22.1,30.24,WSW,247,0.0,5.8,56,0.00,,,0.00,WUHU21623XXSP,2013-12-30 21:25:00,
2013-12-30 15:30:00,36.0,22.2,30.25,West,270,0.0,0.0,57,0.00,,,0.00,WUHU21623XXSP,2013-12-30 21:30:00,
2013-12-30 15:35:00,35.8,22.0,30.25,WSW,247,0.0,0.0,57,0.00,,,0.00,WUHU21623XXSP,2013-12-30 21:35:00,
2013-12-30 15:40:00,35.4,22.1,30.26,South,180,2.9,4.7,58,0.00,,,0.00,WUHU21623XXSP,2013-12-30 21:40:00,
2013-12-30 15:45:00,35.2,22.4,30.26,SSW,202,3.6,4.7,59,0.00,,,0.00,WUHU21623XXSP,2013-12-30 21:45:00,
2013-12-30 15:50:00,34.9,22.5,30.26,SSW,202,0.0,3.6,60,0.00,,,0.00,WUHU21623XXSP,2013-12-30 21:50:00,
2013-12-30 15:55:00,34.9,22.5,30.26,WSW,247,2.2,2.2,60,0.00,,,0.00,WUHU21623XXSP,2013-12-30 21:55:00,
2013-12-30 16:00:00,34.5,22.1,30.26,SSW,202,0.0,2.2,60,0.00,,,0.00,WUHU21623XXSP,2013-12-30 22:00:00,
2013-12-30 16:05:00,34.3,22.3,30.26,SSE,157,0.0,2.2,61,0.00,,,0.00,WUHU21623XXSP,2013-12-30 22:05:00,
2013-12-30 16:10:00,34.3,22.6,30.26,WSW,247,0.0,0.0,62,0.00,,,0.00,WUHU21623XXSP,2013-12-30 22:10:00,
2013-12-30 16:15:00,34.3,22.6,30.26,SW,225,0.0,0.0,62,0.00,,,0.00,WUHU21623XXSP,2013-12-30 22:15:00,
2013-12-30 16:20:00,34.0,22.3,30.26,WSW,247,0.0,0.0,63,0.00,,,0.00,WUHU21623XXSP,2013-12-30 22:20:00,
2013-12-30 16:25:00,33.6,22.5,30.26,SW,225,0.0,0.0,63,0.00,,,0.00,WUHU21623XXSP,2013-12-30 22:25:00,
2013-12-30 16:30:00,33.6,22.3,30.26,WSW,247,0.0,0.0,63,0.00,,,0.00,WUHU21623XXSP,2013-12-30 22:30:00,
2013-12-30 16:35:00,33.3,22.0,30.26,SW,225,0.0,0.0,63,0.00,,,0.00,WUHU21623XXSP,2013-12-30 22:35:00,
2013-12-30 16:40:00,32.9,21.8,30.26,WSW,247,3.1,3.1,63,0.00,,,0.00,WUHU21623XXSP,2013-12-30 22:40:00,
2013-12-30 16:45:00,32.7,21.8,30.26,WSW,247,0.0,3.1,64,0.00,,,0.00,WUHU21623XXSP,2013-12-30 22:45:00,
2013-12-30 16:50:00,32.4,21.5,30.27,WSW,247,0.0,0.0,64,0.00,,,0.00,WUHU21623XXSP,2013-12-30 22:50:00,
2013-12-30 16:55:00,32.2,21.7,30.27,South,180,0.0,0.0,65,0.00,,,0.00,WUHU21623XXSP,2013-12-30 22:55:00,
2013-12-30 17:00:00,31.8,21.4,30.27,WSW,247,0.0,0.0,65,0.00,,,0.00,WUHU21623XXSP,2013-12-30 23:00:00,
2013-12-30 17:05:00,31.3,21.0,30.28,SW,225,0.0,0.0,66,0.00,,,0.00,WUHU21623XXSP,2013-12-30 23:05:00,
2013-12-30 17:10:00,30.9,21.0,30.28,SW,225,0.0,0.0,66,0.00,,,0.00,WUHU21623XXSP,2013-12-30 23:10:00,
2013-12-30 17:29:00,29.1,19.5,30.28,WSW,247,0.0,0.0,67,0.00,,,0.00,WUHU21623XXSP,2013-12-30 23:29:00,
2013-12-30 17:34:00,28.6,19.4,30.28,WSW,247,0.0,0.0,68,0.00,,,0.00,WUHU21623XXSP,2013-12-30 23:34:00,
2013-12-30 17:39:00,28.2,19.0,30.28,WSW,247,0.0,0.0,68,0.00,,,0.00,WUHU21623XXSP,2013-12-30 23:39:00,
2013-12-30 17:44:00,28.0,19.2,30.28,WSW,247,0.0,0.0,69,0.00,,,0.00,WUHU21623XXSP,2013-12-30 23:44:00,
2013-12-30 17:49:00,27.7,18.9,30.28,WSW,247,0.0,0.0,69,0.00,,,0.00,WUHU21623XXSP,2013-12-30 23:49:00,
2013-12-30 17:54:00,27.3,18.9,30.28,WSW,247,0.0,0.0,70,0.00,,,0.00,WUHU21623XXSP,2013-12-30 23:54:00,
2013-12-30 17:59:00,26.8,18.5,30.29,WSW,247,0.0,0.0,70,0.00,,,0.00,WUHU21623XXSP,2013-12-30 23:59:00,
2013-12-30 18:04:00,26.4,18.0,30.30,WSW,247,0.0,0.0,70,0.00,,,0.00,WUHU21623XXSP,2013-12-31 00:04:00,
2013-12-30 18:09:00,26.2,17.8,30.29,WSW,247,0.0,0.0,70,0.00,,,0.00,WUHU21623XXSP,2013-12-31 00:09:00,
2013-12-30 18:14:00,26.1,17.9,30.29,WSW,247,0.0,0.0,71,0.00,,,0.00,WUHU21623XXSP,2013-12-31 00:14:00,
2013-12-30 18:19:00,25.7,17.5,30.30,WSW,247,0.0,0.0,71,0.00,,,0.00,WUHU21623XXSP,2013-12-31 00:19:00,
2013-12-30 18:24:00,25.3,17.5,30.30,WSW,247,0.0,0.0,72,0.00,,,0.00,WUHU21623XXSP,2013-12-31 00:24:00,
2013-12-30 18:29:00,25.0,17.1,30.31,WSW,247,0.0,0.0,72,0.00,,,0.00,WUHU21623XXSP,2013-12-31 00:29:00,
2013-12-30 18:34:00,24.4,16.3,30.31,WSW,247,0.0,0.0,71,0.00,,,0.00,WUHU21623XXSP,2013-12-31 00:34:00,
2013-12-30 18:39:00,24.1,16.3,30.31,WSW,247,0.0,0.0,72,0.00,,,0.00,WUHU21623XXSP,2013-12-31 00:39:00,
2013-12-30 18:44:00,23.7,16.0,30.31,WSW,247,0.0,0.0,72,0.00,,,0.00,WUHU21623XXSP,2013-12-31 00:44:00,
2013-12-30 18:49:00,23.5,15.8,30.32,WSW,247,0.0,0.0,72,0.00,,,0.00,WUHU21623XXSP,2013-12-31 00:49:00,
2013-12-30 18:54:00,23.4,16.0,30.32,WSW,247,0.0,0.0,73,0.00,,,0.00,WUHU21623XXSP,2013-12-31 00:54:00,
2013-12-30 18:59:00,23.2,15.8,30.33,WSW,247,0.0,0.0,73,0.00,,,0.00,WUHU21623XXSP,2013-12-31 00:59:00,
2013-12-30 19:04:00,23.2,16.1,30.33,WSW,247,0.0,0.0,74,0.00,,,0.00,WUHU21623XXSP,2013-12-31 01:04:00,
2013-12-30 19:09:00,23.0,15.9,30.32,WSW,247,0.0,0.0,74,0.00,,,0.00,WUHU21623XXSP,2013-12-31 01:09:00,
2013-12-30 19:14:00,22.8,15.8,30.33,WSW,247,0.0,0.0,74,0.00,,,0.00,WUHU21623XXSP,2013-12-31 01:14:00,
2013-12-30 19:19:00,22.8,15.8,30.33,WSW,247,0.0,0.0,74,0.00,,,0.00,WUHU21623XXSP,2013-12-31 01:19:00,
2013-12-30 19:24:00,22.6,15.6,30.34,WSW,247,0.0,0.0,74,0.00,,,0.00,WUHU21623XXSP,2013-12-31 01:24:00,
2013-12-30 19:29:00,22.3,15.7,30.34,WSW,247,0.0,0.0,75,0.00,,,0.00,WUHU21623XXSP,2013-12-31 01:29:00,
2013-12-30 19:34:00,22.1,15.3,30.34,WSW,247,0.0,0.0,75,0.00,,,0.00,WUHU21623XXSP,2013-12-31 01:34:00,
2013-12-30 19:39:00,21.9,15.2,30.34,WSW,247,0.0,0.0,75,0.00,,,0.00,WUHU21623XXSP,2013-12-31 01:39:00,
2013-12-30 19:44:00,21.6,15.0,30.35,WSW,247,0.0,0.0,75,0.00,,,0.00,WUHU21623XXSP,2013-12-31 01:44:00,
2013-12-30 19:49:00,21.4,14.6,30.35,WSW,247,0.0,0.0,75,0.00,,,0.00,WUHU21623XXSP,2013-12-31 01:49:00,
2013-12-30 19:54:00,21.0,14.3,30.35,WSW,247,0.0,0.0,75,0.00,,,0.00,WUHU21623XXSP,2013-12-31 01:54:00,
2013-12-30 19:59:00,20.8,14.1,30.35,WSW,247,0.0,0.0,75,0.00,,,0.00,WUHU21623XXSP,2013-12-31 01:59:00,
2013-12-30 20:04:00,20.5,14.0,30.35,WSW,247,0.0,0.0,76,0.00,,,0.00,WUHU21623XXSP,2013-12-31 02:04:00,
2013-12-30 20:09:00,20.3,14.0,30.35,WSW,247,0.0,0.0,76,0.00,,,0.00,WUHU21623XXSP,2013-12-31 02:09:00,
2013-12-30 20:14:00,20.1,13.7,30.35,WSW,247,0.0,0.0,76,0.00,,,0.00,WUHU21623XXSP,2013-12-31 02:14:00,
2013-12-30 20:19:00,19.9,13.5,30.35,WSW,247,0.0,0.0,76,0.00,,,0.00,WUHU21623XXSP,2013-12-31 02:19:00,
2013-12-30 20:24:00,19.6,13.1,30.35,WSW,247,0.0,0.0,76,0.00,,,0.00,WUHU21623XXSP,2013-12-31 02:24:00,
2013-12-30 20:29:00,19.4,13.0,30.35,WSW,247,0.0,0.0,76,0.00,,,0.00,WUHU21623XXSP,2013-12-31 02:29:00,
2013-12-30 20:34:00,19.6,13.1,30.35,WSW,247,0.0,0.0,76,0.00,,,0.00,WUHU21623XXSP,2013-12-31 02:34:00,
2013-12-30 20:39:00,19.6,13.1,30.35,WSW,247,0.0,0.0,76,0.00,,,0.00,WUHU21623XXSP,2013-12-31 02:39:00,
2013-12-30 20:44:00,19.2,12.8,30.35,WSW,247,0.0,0.0,76,0.00,,,0.00,WUHU21623XXSP,2013-12-31 02:44:00,
2013-12-30 20:49:00,19.2,12.8,30.35,WSW,247,0.0,0.0,76,0.00,,,0.00,WUHU21623XXSP,2013-12-31 02:49:00,
2013-12-30 20:54:00,19.0,12.9,30.34,WSW,247,0.0,0.0,77,0.00,,,0.00,WUHU21623XXSP,2013-12-31 02:54:00,
2013-12-30 20:59:00,18.9,12.7,30.34,WSW,247,0.0,0.0,77,0.00,,,0.00,WUHU21623XXSP,2013-12-31 02:59:00,
2013-12-30 21:04:00,18.7,12.6,30.34,WSW,247,0.0,0.0,77,0.00,,,0.00,WUHU21623XXSP,2013-12-31 03:04:00,
2013-12-30 21:09:00,18.5,12.6,30.34,WSW,247,0.0,0.0,77,0.00,,,0.00,WUHU21623XXSP,2013-12-31 03:09:00,
2013-12-30 21:14:00,18.5,12.4,30.35,WSW,247,0.0,0.0,77,0.00,,,0.00,WUHU21623XXSP,2013-12-31 03:14:00,
2013-12-30 21:19:00,18.5,12.4,30.36,WSW,247,0.0,0.0,77,0.00,,,0.00,WUHU21623XXSP,2013-12-31 03:19:00,
2013-12-30 21:24:00,18.7,12.6,30.36,WSW,247,0.0,0.0,77,0.00,,,0.00,WUHU21623XXSP,2013-12-31 03:24:00,
2013-12-30 21:29:00,18.7,12.6,30.36,WSW,247,0.0,0.0,77,0.00,,,0.00,WUHU21623XXSP,2013-12-31 03:29:00,
2013-12-30 21:33:00,18.3,12.4,30.36,WSW,247,0.0,0.0,77,0.00,,,0.00,WUHU21623XXSP,2013-12-31 03:33:00,
2013-12-30 21:37:00,18.3,12.2,30.36,WSW,247,0.0,0.0,77,0.00,,,0.00,WUHU21623XXSP,2013-12-31 03:37:00,
2013-12-30 21:44:00,18.0,12.1,30.36,WSW,247,0.0,0.0,78,0.00,,,0.00,WUHU21623XXSP,2013-12-31 03:44:00,
2013-12-30 21:48:00,17.8,12.0,30.36,WSW,247,0.0,0.0,78,0.00,,,0.00,WUHU21623XXSP,2013-12-31 03:48:00,
2013-12-30 21:59:00,18.0,12.1,30.36,WSW,247,0.0,0.0,78,0.00,,,0.00,WUHU21623XXSP,2013-12-31 03:59:00,
2013-12-30 22:12:00,17.8,12.0,30.36,WSW,247,0.0,0.0,78,0.00,,,0.00,WUHU21623XXSP,2013-12-31 04:12:00,
2013-12-30 22:21:00,17.4,11.6,30.36,WSW,247,0.0,0.0,78,0.00,,,0.00,WUHU21623XXSP,2013-12-31 04:21:00,
2013-12-30 22:26:00,17.4,11.6,30.37,WSW,247,0.0,0.0,78,0.00,,,0.00,WUHU21623XXSP,2013-12-31 04:26:00,
2013-12-30 22:31:00,17.4,11.6,30.37,WSW,247,0.0,0.0,78,0.00,,,0.00,WUHU21623XXSP,2013-12-31 04:31:00,
2013-12-30 22:36:00,17.8,12.0,30.36,WSW,247,0.0,0.0,78,0.00,,,0.00,WUHU21623XXSP,2013-12-31 04:36:00,
2013-12-30 22:41:00,18.0,12.1,30.37,WSW,247,0.0,0.0,78,0.00,,,0.00,WUHU21623XXSP,2013-12-31 04:41:00,
2013-12-30 22:46:00,18.1,12.6,30.37,WSW,247,0.0,0.0,79,0.00,,,0.00,WUHU21623XXSP,2013-12-31 04:46:00,
2013-12-30 22:51:00,18.0,12.6,30.37,WSW,247,0.0,0.0,79,0.00,,,0.00,WUHU21623XXSP,2013-12-31 04:51:00,
2013-12-30 22:56:00,18.0,12.4,30.37,WSW,247,0.0,0.0,79,0.00,,,0.00,WUHU21623XXSP,2013-12-31 04:56:00,
2013-12-30 23:01:00,18.1,12.6,30.38,WSW,247,0.0,0.0,79,0.00,,,0.00,WUHU21623XXSP,2013-12-31 05:01:00,
2013-12-30 23:06:00,18.0,12.4,30.39,WSW,247,0.0,0.0,79,0.00,,,0.00,WUHU21623XXSP,2013-12-31 05:06:00,
2013-12-30 23:11:00,18.0,12.4,30.38,WSW,247,0.0,0.0,79,0.00,,,0.00,WUHU21623XXSP,2013-12-31 05:11:00,
2013-12-30 23:16:00,17.6,12.1,30.39,WSW,247,0.0,0.0,79,0.00,,,0.00,WUHU21623XXSP,2013-12-31 05:16:00,
2013-12-30 23:21:00,17.4,11.9,30.39,WSW,247,0.0,0.0,79,0.00,,,0.00,WUHU21623XXSP,2013-12-31 05:21:00,
2013-12-30 23:26:00,17.4,12.2,30.38,WSW,247,0.0,0.0,80,0.00,,,0.00,WUHU21623XXSP,2013-12-31 05:26:00,
2013-12-30 23:31:00,18.0,12.7,30.39,WSW,247,0.0,0.0,80,0.00,,,0.00,WUHU21623XXSP,2013-12-31 05:31:00,
2013-12-30 23:36:00,18.1,12.9,30.39,WSW,247,0.0,0.0,80,0.00,,,0.00,WUHU21623XXSP,2013-12-31 05:36:00,
2013-12-30 23:41:00,18.1,12.9,30.39,WSW,247,0.0,0.0,80,0.00,,,0.00,WUHU21623XXSP,2013-12-31 05:41:00,
2013-12-30 23:46:00,18.3,13.1,30.38,WSW,247,0.0,0.0,80,0.00,,,0.00,WUHU21623XXSP,2013-12-31 05:46:00,
2013-12-30 23:51:00,18.3,13.1,30.39,WSW,247,0.0,0.0,80,0.00,,,0.00,WUHU21623XXSP,2013-12-31 05:51:00,
2013-12-30 23:56:00,18.3,13.1,30.39,WSW,247,0.0,0.0,80,0.00,,,0.00,WUHU21623XXSP,2013-12-31 05:56:00,